sensor_id;sensor_type;location;lat;lon;timestamp;P1;durP1;ratioP1;P2;durP2;ratioP2
84084;SDS011;74175;41.730;44.734;2024-01-30T00:00:15;14.65;;;5.90;;
84084;SDS011;74175;41.730;44.734;2024-01-30T00:02:42;13.10;;;5.50;;
84084;SDS011;74175;41.730;44.734;2024-01-30T00:05:08;14.30;;;5.40;;
84084;SDS011;74175;41.730;44.734;2024-01-30T00:07:34;14.40;;;5.95;;
84084;SDS011;74175;41.730;44.734;2024-01-30T00:10:01;14.23;;;5.15;;
84084;SDS011;74175;41.730;44.734;2024-01-30T00:12:27;20.30;;;7.93;;
84084;SDS011;74175;41.730;44.734;2024-01-30T00:14:53;16.02;;;5.75;;
84084;SDS011;74175;41.730;44.734;2024-01-30T00:17:22;16.85;;;6.15;;
84084;SDS011;74175;41.730;44.734;2024-01-30T00:19:50;15.43;;;5.60;;
84084;SDS011;74175;41.730;44.734;2024-01-30T00:22:16;14.40;;;5.78;;
84084;SDS011;74175;41.730;44.734;2024-01-30T00:24:42;12.52;;;5.45;;
84084;SDS011;74175;41.730;44.734;2024-01-30T00:27:08;14.90;;;5.97;;
84084;SDS011;74175;41.730;44.734;2024-01-30T00:29:35;13.82;;;5.68;;
84084;SDS011;74175;41.730;44.734;2024-01-30T00:32:01;14.90;;;5.50;;
84084;SDS011;74175;41.730;44.734;2024-01-30T00:34:27;17.23;;;6.70;;
84084;SDS011;74175;41.730;44.734;2024-01-30T00:36:53;13.48;;;5.88;;
84084;SDS011;74175;41.730;44.734;2024-01-30T00:39:19;13.80;;;5.03;;
84084;SDS011;74175;41.730;44.734;2024-01-30T00:41:45;15.27;;;5.50;;
84084;SDS011;74175;41.730;44.734;2024-01-30T00:44:12;13.45;;;5.18;;
84084;SDS011;74175;41.730;44.734;2024-01-30T00:46:38;12.88;;;5.20;;
84084;SDS011;74175;41.730;44.734;2024-01-30T00:49:07;15.02;;;6.05;;
84084;SDS011;74175;41.730;44.734;2024-01-30T00:51:33;10.07;;;4.07;;
84084;SDS011;74175;41.730;44.734;2024-01-30T00:53:59;13.70;;;6.03;;
84084;SDS011;74175;41.730;44.734;2024-01-30T00:56:25;15.98;;;6.63;;
84084;SDS011;74175;41.730;44.734;2024-01-30T00:58:51;12.18;;;4.50;;
84084;SDS011;74175;41.730;44.734;2024-01-30T01:01:17;9.20;;;3.70;;
84084;SDS011;74175;41.730;44.734;2024-01-30T01:03:43;9.75;;;4.03;;
84084;SDS011;74175;41.730;44.734;2024-01-30T01:06:09;10.27;;;4.47;;
84084;SDS011;74175;41.730;44.734;2024-01-30T01:08:36;9.15;;;3.50;;
84084;SDS011;74175;41.730;44.734;2024-01-30T01:11:02;10.18;;;3.80;;
84084;SDS011;74175;41.730;44.734;2024-01-30T01:13:29;9.95;;;3.90;;
84084;SDS011;74175;41.730;44.734;2024-01-30T01:15:55;8.98;;;3.60;;
84084;SDS011;74175;41.730;44.734;2024-01-30T01:18:21;9.67;;;3.60;;
84084;SDS011;74175;41.730;44.734;2024-01-30T01:20:47;12.02;;;3.95;;
84084;SDS011;74175;41.730;44.734;2024-01-30T01:23:13;12.02;;;4.50;;
84084;SDS011;74175;41.730;44.734;2024-01-30T01:25:39;10.23;;;3.75;;
84084;SDS011;74175;41.730;44.734;2024-01-30T01:28:05;10.73;;;4.05;;
84084;SDS011;74175;41.730;44.734;2024-01-30T01:30:50;13.80;;;5.40;;
84084;SDS011;74175;41.730;44.734;2024-01-30T01:33:17;11.27;;;4.57;;
84084;SDS011;74175;41.730;44.734;2024-01-30T01:35:43;9.37;;;4.00;;
84084;SDS011;74175;41.730;44.734;2024-01-30T01:38:15;10.88;;;3.95;;
84084;SDS011;74175;41.730;44.734;2024-01-30T01:40:41;9.80;;;4.05;;
84084;SDS011;74175;41.730;44.734;2024-01-30T01:43:11;8.98;;;4.00;;
84084;SDS011;74175;41.730;44.734;2024-01-30T01:45:37;8.88;;;3.85;;
84084;SDS011;74175;41.730;44.734;2024-01-30T01:48:03;10.30;;;4.37;;
84084;SDS011;74175;41.730;44.734;2024-01-30T01:50:29;11.93;;;4.33;;
84084;SDS011;74175;41.730;44.734;2024-01-30T01:52:55;9.00;;;3.58;;
84084;SDS011;74175;41.730;44.734;2024-01-30T01:55:22;9.15;;;3.50;;
84084;SDS011;74175;41.730;44.734;2024-01-30T01:57:50;8.98;;;3.50;;
84084;SDS011;74175;41.730;44.734;2024-01-30T02:00:17;9.10;;;3.83;;
84084;SDS011;74175;41.730;44.734;2024-01-30T02:02:47;11.70;;;4.78;;
84084;SDS011;74175;41.730;44.734;2024-01-30T02:05:15;14.73;;;4.87;;
84084;SDS011;74175;41.730;44.734;2024-01-30T02:07:42;11.68;;;4.43;;
84084;SDS011;74175;41.730;44.734;2024-01-30T02:10:09;10.07;;;3.85;;
84084;SDS011;74175;41.730;44.734;2024-01-30T02:12:35;13.68;;;5.38;;
84084;SDS011;74175;41.730;44.734;2024-01-30T02:15:01;9.70;;;4.13;;
84084;SDS011;74175;41.730;44.734;2024-01-30T02:17:29;13.30;;;5.57;;
84084;SDS011;74175;41.730;44.734;2024-01-30T02:19:56;10.98;;;4.15;;
84084;SDS011;74175;41.730;44.734;2024-01-30T02:22:22;13.30;;;4.85;;
84084;SDS011;74175;41.730;44.734;2024-01-30T02:24:48;10.65;;;4.28;;
84084;SDS011;74175;41.730;44.734;2024-01-30T02:27:14;13.95;;;5.18;;
84084;SDS011;74175;41.730;44.734;2024-01-30T02:29:41;15.30;;;6.15;;
84084;SDS011;74175;41.730;44.734;2024-01-30T02:32:07;11.73;;;4.68;;
84084;SDS011;74175;41.730;44.734;2024-01-30T02:34:33;13.40;;;5.40;;
84084;SDS011;74175;41.730;44.734;2024-01-30T02:36:59;14.38;;;5.78;;
84084;SDS011;74175;41.730;44.734;2024-01-30T02:39:25;15.52;;;6.70;;
84084;SDS011;74175;41.730;44.734;2024-01-30T02:41:51;16.25;;;5.88;;
84084;SDS011;74175;41.730;44.734;2024-01-30T02:44:17;11.55;;;4.82;;
84084;SDS011;74175;41.730;44.734;2024-01-30T02:46:43;11.77;;;4.93;;
84084;SDS011;74175;41.730;44.734;2024-01-30T02:49:12;13.13;;;5.13;;
84084;SDS011;74175;41.730;44.734;2024-01-30T02:51:38;14.37;;;6.00;;
84084;SDS011;74175;41.730;44.734;2024-01-30T02:54:08;14.77;;;5.88;;
84084;SDS011;74175;41.730;44.734;2024-01-30T02:56:34;14.07;;;5.40;;
84084;SDS011;74175;41.730;44.734;2024-01-30T02:59:00;14.73;;;5.80;;
84084;SDS011;74175;41.730;44.734;2024-01-30T03:01:26;12.27;;;5.00;;
84084;SDS011;74175;41.730;44.734;2024-01-30T03:03:52;11.97;;;4.70;;
84084;SDS011;74175;41.730;44.734;2024-01-30T03:06:18;15.63;;;6.50;;
84084;SDS011;74175;41.730;44.734;2024-01-30T03:08:45;13.63;;;5.05;;
84084;SDS011;74175;41.730;44.734;2024-01-30T03:11:11;12.82;;;5.80;;
84084;SDS011;74175;41.730;44.734;2024-01-30T03:13:39;13.20;;;5.28;;
84084;SDS011;74175;41.730;44.734;2024-01-30T03:16:05;10.73;;;4.70;;
84084;SDS011;74175;41.730;44.734;2024-01-30T03:18:32;15.63;;;6.13;;
84084;SDS011;74175;41.730;44.734;2024-01-30T03:20:58;14.65;;;5.45;;
84084;SDS011;74175;41.730;44.734;2024-01-30T03:23:24;17.40;;;6.97;;
84084;SDS011;74175;41.730;44.734;2024-01-30T03:25:50;17.38;;;6.07;;
84084;SDS011;74175;41.730;44.734;2024-01-30T03:28:17;18.92;;;7.05;;
84084;SDS011;74175;41.730;44.734;2024-01-30T03:30:47;16.37;;;6.80;;
84084;SDS011;74175;41.730;44.734;2024-01-30T03:33:13;18.83;;;7.18;;
84084;SDS011;74175;41.730;44.734;2024-01-30T03:35:39;19.90;;;7.72;;
84084;SDS011;74175;41.730;44.734;2024-01-30T03:38:05;15.60;;;6.85;;
84084;SDS011;74175;41.730;44.734;2024-01-30T03:40:32;15.00;;;6.28;;
84084;SDS011;74175;41.730;44.734;2024-01-30T03:42:58;18.08;;;7.50;;
84084;SDS011;74175;41.730;44.734;2024-01-30T03:45:29;12.90;;;5.17;;
84084;SDS011;74175;41.730;44.734;2024-01-30T03:47:56;10.68;;;3.95;;
84084;SDS011;74175;41.730;44.734;2024-01-30T03:50:22;16.48;;;6.93;;
84084;SDS011;74175;41.730;44.734;2024-01-30T03:52:48;15.45;;;6.25;;
84084;SDS011;74175;41.730;44.734;2024-01-30T03:55:14;19.33;;;7.67;;
84084;SDS011;74175;41.730;44.734;2024-01-30T03:57:41;17.83;;;7.07;;
84084;SDS011;74175;41.730;44.734;2024-01-30T04:00:07;16.73;;;6.32;;
84084;SDS011;74175;41.730;44.734;2024-01-30T04:02:39;19.27;;;7.85;;
84084;SDS011;74175;41.730;44.734;2024-01-30T04:05:06;20.05;;;7.10;;
84084;SDS011;74175;41.730;44.734;2024-01-30T04:07:32;20.73;;;8.63;;
84084;SDS011;74175;41.730;44.734;2024-01-30T04:09:59;22.00;;;8.68;;
84084;SDS011;74175;41.730;44.734;2024-01-30T04:12:31;21.93;;;8.80;;
84084;SDS011;74175;41.730;44.734;2024-01-30T04:14:57;22.00;;;9.50;;
84084;SDS011;74175;41.730;44.734;2024-01-30T04:17:23;18.20;;;7.38;;
84084;SDS011;74175;41.730;44.734;2024-01-30T04:19:50;24.15;;;9.30;;
84084;SDS011;74175;41.730;44.734;2024-01-30T04:22:16;21.88;;;9.50;;
84084;SDS011;74175;41.730;44.734;2024-01-30T04:24:42;21.63;;;9.40;;
84084;SDS011;74175;41.730;44.734;2024-01-30T04:27:08;20.65;;;9.15;;
84084;SDS011;74175;41.730;44.734;2024-01-30T04:29:36;19.33;;;8.05;;
84084;SDS011;74175;41.730;44.734;2024-01-30T04:32:02;22.75;;;8.85;;
84084;SDS011;74175;41.730;44.734;2024-01-30T04:34:31;19.05;;;7.47;;
84084;SDS011;74175;41.730;44.734;2024-01-30T04:36:57;23.67;;;8.95;;
84084;SDS011;74175;41.730;44.734;2024-01-30T04:39:23;20.90;;;8.10;;
84084;SDS011;74175;41.730;44.734;2024-01-30T04:41:49;17.52;;;5.90;;
84084;SDS011;74175;41.730;44.734;2024-01-30T04:44:15;16.58;;;5.95;;
84084;SDS011;74175;41.730;44.734;2024-01-30T04:46:41;16.80;;;6.72;;
84084;SDS011;74175;41.730;44.734;2024-01-30T04:49:08;17.88;;;6.32;;
84084;SDS011;74175;41.730;44.734;2024-01-30T04:51:34;16.13;;;5.55;;
84084;SDS011;74175;41.730;44.734;2024-01-30T04:54:00;18.10;;;7.63;;
84084;SDS011;74175;41.730;44.734;2024-01-30T04:56:27;20.03;;;7.30;;
84084;SDS011;74175;41.730;44.734;2024-01-30T04:58:53;18.15;;;6.93;;
84084;SDS011;74175;41.730;44.734;2024-01-30T05:01:19;21.67;;;8.27;;
84084;SDS011;74175;41.730;44.734;2024-01-30T05:03:45;21.70;;;8.70;;
84084;SDS011;74175;41.730;44.734;2024-01-30T05:06:11;22.25;;;8.85;;
84084;SDS011;74175;41.730;44.734;2024-01-30T05:08:37;21.15;;;8.27;;
84084;SDS011;74175;41.730;44.734;2024-01-30T05:11:06;17.77;;;6.38;;
84084;SDS011;74175;41.730;44.734;2024-01-30T05:13:33;18.55;;;7.18;;
84084;SDS011;74175;41.730;44.734;2024-01-30T05:16:01;20.77;;;7.23;;
84084;SDS011;74175;41.730;44.734;2024-01-30T05:18:29;19.77;;;8.13;;
84084;SDS011;74175;41.730;44.734;2024-01-30T05:20:55;18.33;;;6.68;;
84084;SDS011;74175;41.730;44.734;2024-01-30T05:23:21;16.77;;;6.63;;
84084;SDS011;74175;41.730;44.734;2024-01-30T05:25:47;17.23;;;7.35;;
84084;SDS011;74175;41.730;44.734;2024-01-30T05:28:14;15.18;;;6.15;;
84084;SDS011;74175;41.730;44.734;2024-01-30T05:30:40;15.43;;;6.25;;
84084;SDS011;74175;41.730;44.734;2024-01-30T05:33:06;16.25;;;6.35;;
84084;SDS011;74175;41.730;44.734;2024-01-30T05:35:32;18.80;;;7.40;;
84084;SDS011;74175;41.730;44.734;2024-01-30T05:38:01;19.30;;;8.00;;
84084;SDS011;74175;41.730;44.734;2024-01-30T05:40:27;17.52;;;7.03;;
84084;SDS011;74175;41.730;44.734;2024-01-30T05:42:53;20.73;;;6.88;;
84084;SDS011;74175;41.730;44.734;2024-01-30T05:45:20;16.55;;;6.82;;
84084;SDS011;74175;41.730;44.734;2024-01-30T05:47:46;18.67;;;6.70;;
84084;SDS011;74175;41.730;44.734;2024-01-30T05:50:12;17.88;;;6.25;;
84084;SDS011;74175;41.730;44.734;2024-01-30T05:52:38;18.97;;;7.17;;
84084;SDS011;74175;41.730;44.734;2024-01-30T05:55:04;18.27;;;6.47;;
84084;SDS011;74175;41.730;44.734;2024-01-30T05:57:31;23.27;;;8.82;;
84084;SDS011;74175;41.730;44.734;2024-01-30T05:59:57;19.70;;;7.30;;
84084;SDS011;74175;41.730;44.734;2024-01-30T06:02:23;17.42;;;7.25;;
84084;SDS011;74175;41.730;44.734;2024-01-30T06:04:49;15.48;;;6.25;;
84084;SDS011;74175;41.730;44.734;2024-01-30T06:07:15;17.95;;;6.95;;
84084;SDS011;74175;41.730;44.734;2024-01-30T06:09:43;28.87;;;10.60;;
84084;SDS011;74175;41.730;44.734;2024-01-30T06:12:09;24.55;;;8.32;;
84084;SDS011;74175;41.730;44.734;2024-01-30T06:14:37;18.38;;;7.15;;
84084;SDS011;74175;41.730;44.734;2024-01-30T06:17:03;24.25;;;9.77;;
84084;SDS011;74175;41.730;44.734;2024-01-30T06:19:30;21.67;;;8.07;;
84084;SDS011;74175;41.730;44.734;2024-01-30T06:21:56;22.35;;;8.57;;
84084;SDS011;74175;41.730;44.734;2024-01-30T06:24:23;19.73;;;6.72;;
84084;SDS011;74175;41.730;44.734;2024-01-30T06:26:49;18.97;;;6.77;;
84084;SDS011;74175;41.730;44.734;2024-01-30T06:29:15;17.90;;;6.18;;
84084;SDS011;74175;41.730;44.734;2024-01-30T06:31:44;17.60;;;6.82;;
84084;SDS011;74175;41.730;44.734;2024-01-30T06:34:10;19.52;;;7.13;;
84084;SDS011;74175;41.730;44.734;2024-01-30T06:36:37;18.20;;;7.35;;
84084;SDS011;74175;41.730;44.734;2024-01-30T06:39:04;19.00;;;6.82;;
84084;SDS011;74175;41.730;44.734;2024-01-30T06:41:31;17.97;;;6.93;;
84084;SDS011;74175;41.730;44.734;2024-01-30T06:43:57;20.97;;;8.00;;
84084;SDS011;74175;41.730;44.734;2024-01-30T06:46:23;21.55;;;8.40;;
84084;SDS011;74175;41.730;44.734;2024-01-30T06:48:49;21.15;;;8.07;;
84084;SDS011;74175;41.730;44.734;2024-01-30T06:51:15;18.92;;;7.90;;
84084;SDS011;74175;41.730;44.734;2024-01-30T06:53:41;22.05;;;8.10;;
84084;SDS011;74175;41.730;44.734;2024-01-30T06:56:09;19.63;;;7.82;;
84084;SDS011;74175;41.730;44.734;2024-01-30T06:58:35;19.47;;;7.17;;
84084;SDS011;74175;41.730;44.734;2024-01-30T07:01:01;20.33;;;7.95;;
84084;SDS011;74175;41.730;44.734;2024-01-30T07:03:27;19.35;;;7.13;;
84084;SDS011;74175;41.730;44.734;2024-01-30T07:05:53;20.73;;;7.57;;
84084;SDS011;74175;41.730;44.734;2024-01-30T07:08:19;17.88;;;6.85;;
84084;SDS011;74175;41.730;44.734;2024-01-30T07:10:46;17.75;;;6.72;;
84084;SDS011;74175;41.730;44.734;2024-01-30T07:13:13;21.03;;;7.60;;
84084;SDS011;74175;41.730;44.734;2024-01-30T07:15:42;16.13;;;7.07;;
84084;SDS011;74175;41.730;44.734;2024-01-30T07:18:08;17.08;;;6.70;;
84084;SDS011;74175;41.730;44.734;2024-01-30T07:20:35;17.40;;;6.22;;
84084;SDS011;74175;41.730;44.734;2024-01-30T07:23:01;18.58;;;6.85;;
84084;SDS011;74175;41.730;44.734;2024-01-30T07:25:31;22.48;;;8.73;;
84084;SDS011;74175;41.730;44.734;2024-01-30T07:27:57;21.13;;;8.48;;
84084;SDS011;74175;41.730;44.734;2024-01-30T07:30:23;15.93;;;6.47;;
84084;SDS011;74175;41.730;44.734;2024-01-30T07:32:49;17.80;;;7.18;;
84084;SDS011;74175;41.730;44.734;2024-01-30T07:35:16;18.58;;;7.05;;
84084;SDS011;74175;41.730;44.734;2024-01-30T07:37:42;17.63;;;6.47;;
84084;SDS011;74175;41.730;44.734;2024-01-30T07:40:08;17.10;;;6.80;;
84084;SDS011;74175;41.730;44.734;2024-01-30T07:42:35;18.60;;;6.85;;
84084;SDS011;74175;41.730;44.734;2024-01-30T07:45:01;19.00;;;7.20;;
84084;SDS011;74175;41.730;44.734;2024-01-30T07:47:27;17.98;;;7.30;;
84084;SDS011;74175;41.730;44.734;2024-01-30T07:49:53;16.80;;;6.32;;
84084;SDS011;74175;41.730;44.734;2024-01-30T09:40:30;21.38;;;9.63;;
84084;SDS011;74175;41.730;44.734;2024-01-30T09:42:57;20.20;;;9.07;;
84084;SDS011;74175;41.730;44.734;2024-01-30T09:45:25;20.77;;;9.25;;
84084;SDS011;74175;41.730;44.734;2024-01-30T09:47:52;21.33;;;9.50;;
84084;SDS011;74175;41.730;44.734;2024-01-30T09:50:19;23.47;;;9.67;;
84084;SDS011;74175;41.730;44.734;2024-01-30T09:52:46;22.42;;;9.82;;
84084;SDS011;74175;41.730;44.734;2024-01-30T09:55:13;21.67;;;9.95;;
84084;SDS011;74175;41.730;44.734;2024-01-30T09:57:39;22.50;;;9.73;;
84084;SDS011;74175;41.730;44.734;2024-01-30T10:00:07;19.85;;;8.50;;
84084;SDS011;74175;41.730;44.734;2024-01-30T10:02:39;23.73;;;10.95;;
84084;SDS011;74175;41.730;44.734;2024-01-30T10:05:07;20.57;;;9.93;;
84084;SDS011;74175;41.730;44.734;2024-01-30T10:07:34;22.27;;;9.47;;
84084;SDS011;74175;41.730;44.734;2024-01-30T10:10:00;23.08;;;9.55;;
84084;SDS011;74175;41.730;44.734;2024-01-30T10:12:26;20.42;;;9.40;;
84084;SDS011;74175;41.730;44.734;2024-01-30T10:14:53;22.17;;;9.98;;
84084;SDS011;74175;41.730;44.734;2024-01-30T10:17:24;19.95;;;8.05;;
84084;SDS011;74175;41.730;44.734;2024-01-30T10:19:51;18.10;;;8.23;;
84084;SDS011;74175;41.730;44.734;2024-01-30T10:22:17;19.93;;;8.80;;
84084;SDS011;74175;41.730;44.734;2024-01-30T10:24:43;19.43;;;7.90;;
84084;SDS011;74175;41.730;44.734;2024-01-30T10:27:11;17.75;;;7.32;;
84084;SDS011;74175;41.730;44.734;2024-01-30T10:29:37;18.27;;;7.53;;
84084;SDS011;74175;41.730;44.734;2024-01-30T10:32:05;15.40;;;6.50;;
84084;SDS011;74175;41.730;44.734;2024-01-30T10:34:32;17.83;;;7.13;;
84084;SDS011;74175;41.730;44.734;2024-01-30T10:37:09;21.77;;;8.82;;
84084;SDS011;74175;41.730;44.734;2024-01-30T10:39:46;22.97;;;9.27;;
84084;SDS011;74175;41.730;44.734;2024-01-30T10:42:13;17.30;;;7.80;;
84084;SDS011;74175;41.730;44.734;2024-01-30T10:45:25;17.20;;;8.10;;
84084;SDS011;74175;41.730;44.734;2024-01-30T10:47:31;13.57;;;6.68;;
84084;SDS011;74175;41.730;44.734;2024-01-30T10:50:00;16.70;;;7.15;;
84084;SDS011;74175;41.730;44.734;2024-01-30T10:52:26;17.05;;;7.78;;
84084;SDS011;74175;41.730;44.734;2024-01-30T10:54:56;14.60;;;5.90;;
84084;SDS011;74175;41.730;44.734;2024-01-30T10:57:26;12.95;;;5.90;;
84084;SDS011;74175;41.730;44.734;2024-01-30T11:00:14;12.37;;;4.57;;
84084;SDS011;74175;41.730;44.734;2024-01-30T11:02:42;12.88;;;5.72;;
84084;SDS011;74175;41.730;44.734;2024-01-30T11:05:12;11.13;;;4.78;;
84084;SDS011;74175;41.730;44.734;2024-01-30T11:07:39;10.38;;;4.15;;
84084;SDS011;74175;41.730;44.734;2024-01-30T11:10:07;12.35;;;5.55;;
84084;SDS011;74175;41.730;44.734;2024-01-30T11:12:38;15.30;;;5.85;;
84084;SDS011;74175;41.730;44.734;2024-01-30T11:15:10;10.00;;;4.00;;
84084;SDS011;74175;41.730;44.734;2024-01-30T11:20:11;13.32;;;6.00;;
84084;SDS011;74175;41.730;44.734;2024-01-30T11:22:40;14.27;;;5.63;;
84084;SDS011;74175;41.730;44.734;2024-01-30T11:25:10;13.43;;;6.22;;
84084;SDS011;74175;41.730;44.734;2024-01-30T11:27:38;10.93;;;4.78;;
84084;SDS011;74175;41.730;44.734;2024-01-30T11:30:04;17.88;;;7.25;;
84084;SDS011;74175;41.730;44.734;2024-01-30T11:32:31;10.17;;;4.47;;
84084;SDS011;74175;41.730;44.734;2024-01-30T11:34:57;11.88;;;4.88;;
84084;SDS011;74175;41.730;44.734;2024-01-30T11:37:27;10.55;;;4.88;;
84084;SDS011;74175;41.730;44.734;2024-01-30T11:39:54;10.77;;;5.10;;
84084;SDS011;74175;41.730;44.734;2024-01-30T11:42:22;11.40;;;4.80;;
84084;SDS011;74175;41.730;44.734;2024-01-30T11:44:50;10.32;;;3.88;;
84084;SDS011;74175;41.730;44.734;2024-01-30T11:47:16;11.13;;;5.53;;
84084;SDS011;74175;41.730;44.734;2024-01-30T11:52:16;9.60;;;4.22;;
84084;SDS011;74175;41.730;44.734;2024-01-30T11:54:42;11.85;;;4.75;;
84084;SDS011;74175;41.730;44.734;2024-01-30T11:57:09;13.02;;;5.50;;
84084;SDS011;74175;41.730;44.734;2024-01-30T11:59:36;13.13;;;5.80;;
84084;SDS011;74175;41.730;44.734;2024-01-30T12:02:03;10.05;;;4.35;;
84084;SDS011;74175;41.730;44.734;2024-01-30T12:04:30;11.95;;;5.22;;
84084;SDS011;74175;41.730;44.734;2024-01-30T12:06:56;9.77;;;4.30;;
84084;SDS011;74175;41.730;44.734;2024-01-30T12:09:22;10.27;;;4.18;;
84084;SDS011;74175;41.730;44.734;2024-01-30T12:11:50;8.93;;;3.93;;
84084;SDS011;74175;41.730;44.734;2024-01-30T12:14:16;10.10;;;4.32;;
84084;SDS011;74175;41.730;44.734;2024-01-30T12:16:43;13.93;;;5.80;;
84084;SDS011;74175;41.730;44.734;2024-01-30T12:19:09;13.57;;;6.80;;
84084;SDS011;74175;41.730;44.734;2024-01-30T12:21:35;11.48;;;5.28;;
84084;SDS011;74175;41.730;44.734;2024-01-30T12:24:01;11.98;;;5.50;;
84084;SDS011;74175;41.730;44.734;2024-01-30T12:26:28;13.47;;;5.70;;
84084;SDS011;74175;41.730;44.734;2024-01-30T12:28:54;12.77;;;5.55;;
84084;SDS011;74175;41.730;44.734;2024-01-30T12:31:27;10.60;;;4.57;;
84084;SDS011;74175;41.730;44.734;2024-01-30T12:33:54;11.60;;;5.35;;
84084;SDS011;74175;41.730;44.734;2024-01-30T12:36:21;11.60;;;4.95;;
84084;SDS011;74175;41.730;44.734;2024-01-30T12:38:48;12.30;;;5.65;;
84084;SDS011;74175;41.730;44.734;2024-01-30T12:41:14;10.33;;;4.27;;
84084;SDS011;74175;41.730;44.734;2024-01-30T12:43:41;12.32;;;5.15;;
84084;SDS011;74175;41.730;44.734;2024-01-30T12:46:08;10.73;;;4.70;;
84084;SDS011;74175;41.730;44.734;2024-01-30T12:48:34;9.13;;;4.15;;
84084;SDS011;74175;41.730;44.734;2024-01-30T12:51:00;10.43;;;4.50;;
84084;SDS011;74175;41.730;44.734;2024-01-30T12:53:27;11.40;;;5.60;;
84084;SDS011;74175;41.730;44.734;2024-01-30T12:55:53;10.30;;;4.27;;
84084;SDS011;74175;41.730;44.734;2024-01-30T12:58:21;13.00;;;5.50;;
84084;SDS011;74175;41.730;44.734;2024-01-30T13:00:48;10.05;;;4.68;;
84084;SDS011;74175;41.730;44.734;2024-01-30T13:03:14;9.57;;;4.00;;
84084;SDS011;74175;41.730;44.734;2024-01-30T13:05:40;11.35;;;4.82;;
84084;SDS011;74175;41.730;44.734;2024-01-30T13:08:06;10.32;;;4.68;;
84084;SDS011;74175;41.730;44.734;2024-01-30T13:10:32;11.23;;;5.03;;
84084;SDS011;74175;41.730;44.734;2024-01-30T13:12:58;12.27;;;4.37;;
84084;SDS011;74175;41.730;44.734;2024-01-30T13:15:25;12.73;;;6.13;;
84084;SDS011;74175;41.730;44.734;2024-01-30T13:17:51;10.48;;;5.15;;
84084;SDS011;74175;41.730;44.734;2024-01-30T13:20:19;12.23;;;5.07;;
84084;SDS011;74175;41.730;44.734;2024-01-30T13:22:49;10.00;;;4.75;;
84084;SDS011;74175;41.730;44.734;2024-01-30T13:25:16;13.27;;;5.18;;
84084;SDS011;74175;41.730;44.734;2024-01-30T13:27:42;12.10;;;4.60;;
84084;SDS011;74175;41.730;44.734;2024-01-30T13:30:09;10.02;;;4.65;;
84084;SDS011;74175;41.730;44.734;2024-01-30T13:32:35;12.93;;;4.90;;
84084;SDS011;74175;41.730;44.734;2024-01-30T13:35:02;10.03;;;4.50;;
84084;SDS011;74175;41.730;44.734;2024-01-30T13:37:29;9.35;;;4.25;;
84084;SDS011;74175;41.730;44.734;2024-01-30T13:39:55;10.30;;;4.72;;
84084;SDS011;74175;41.730;44.734;2024-01-30T13:42:22;13.45;;;5.32;;
84084;SDS011;74175;41.730;44.734;2024-01-30T13:44:49;10.85;;;4.72;;
84084;SDS011;74175;41.730;44.734;2024-01-30T13:47:15;9.57;;;4.33;;
84084;SDS011;74175;41.730;44.734;2024-01-30T13:49:41;9.05;;;3.95;;
84084;SDS011;74175;41.730;44.734;2024-01-30T13:52:07;9.55;;;4.50;;
84084;SDS011;74175;41.730;44.734;2024-01-30T13:54:34;7.93;;;3.65;;
84084;SDS011;74175;41.730;44.734;2024-01-30T13:57:00;11.75;;;4.13;;
84084;SDS011;74175;41.730;44.734;2024-01-30T13:59:26;12.10;;;6.07;;
84084;SDS011;74175;41.730;44.734;2024-01-30T14:01:52;11.52;;;6.45;;
84084;SDS011;74175;41.730;44.734;2024-01-30T14:04:18;13.63;;;7.23;;
84084;SDS011;74175;41.730;44.734;2024-01-30T14:06:44;10.87;;;5.40;;
84084;SDS011;74175;41.730;44.734;2024-01-30T14:09:12;9.52;;;4.88;;
84084;SDS011;74175;41.730;44.734;2024-01-30T14:11:41;13.98;;;5.30;;
84084;SDS011;74175;41.730;44.734;2024-01-30T14:14:09;15.13;;;6.93;;
84084;SDS011;74175;41.730;44.734;2024-01-30T14:16:35;17.30;;;8.70;;
84084;SDS011;74175;41.730;44.734;2024-01-30T14:19:01;12.82;;;5.68;;
84084;SDS011;74175;41.730;44.734;2024-01-30T14:21:27;11.80;;;5.25;;
84084;SDS011;74175;41.730;44.734;2024-01-30T14:23:53;14.03;;;5.30;;
84084;SDS011;74175;41.730;44.734;2024-01-30T14:26:20;13.77;;;5.70;;
84084;SDS011;74175;41.730;44.734;2024-01-30T14:28:46;10.13;;;3.92;;
84084;SDS011;74175;41.730;44.734;2024-01-30T14:31:12;14.98;;;6.35;;
84084;SDS011;74175;41.730;44.734;2024-01-30T14:33:39;12.02;;;5.00;;
84084;SDS011;74175;41.730;44.734;2024-01-30T14:36:06;10.75;;;4.53;;
84084;SDS011;74175;41.730;44.734;2024-01-30T14:38:33;10.00;;;4.28;;
84084;SDS011;74175;41.730;44.734;2024-01-30T14:41:00;9.60;;;4.27;;
84084;SDS011;74175;41.730;44.734;2024-01-30T14:43:27;10.98;;;4.13;;
84084;SDS011;74175;41.730;44.734;2024-01-30T14:45:58;10.02;;;4.22;;
84084;SDS011;74175;41.730;44.734;2024-01-30T14:48:24;11.50;;;4.05;;
84084;SDS011;74175;41.730;44.734;2024-01-30T14:50:50;13.93;;;4.95;;
84084;SDS011;74175;41.730;44.734;2024-01-30T14:53:16;10.27;;;4.50;;
84084;SDS011;74175;41.730;44.734;2024-01-30T14:55:43;14.00;;;5.10;;
84084;SDS011;74175;41.730;44.734;2024-01-30T14:58:09;14.80;;;7.10;;
84084;SDS011;74175;41.730;44.734;2024-01-30T15:00:35;14.43;;;6.68;;
84084;SDS011;74175;41.730;44.734;2024-01-30T15:03:04;14.67;;;5.97;;
84084;SDS011;74175;41.730;44.734;2024-01-30T15:05:30;21.77;;;12.25;;
84084;SDS011;74175;41.730;44.734;2024-01-30T15:07:56;14.32;;;7.72;;
84084;SDS011;74175;41.730;44.734;2024-01-30T15:10:22;14.48;;;8.15;;
84084;SDS011;74175;41.730;44.734;2024-01-30T15:12:48;12.85;;;6.88;;
84084;SDS011;74175;41.730;44.734;2024-01-30T15:15:14;12.40;;;5.90;;
84084;SDS011;74175;41.730;44.734;2024-01-30T15:17:41;13.52;;;5.57;;
84084;SDS011;74175;41.730;44.734;2024-01-30T15:20:07;16.73;;;7.30;;
84084;SDS011;74175;41.730;44.734;2024-01-30T15:22:34;15.00;;;6.57;;
84084;SDS011;74175;41.730;44.734;2024-01-30T15:25:01;12.63;;;5.88;;
84084;SDS011;74175;41.730;44.734;2024-01-30T15:27:28;14.57;;;5.97;;
84084;SDS011;74175;41.730;44.734;2024-01-30T15:29:54;18.23;;;6.63;;
84084;SDS011;74175;41.730;44.734;2024-01-30T15:32:21;16.58;;;7.63;;
84084;SDS011;74175;41.730;44.734;2024-01-30T15:34:47;17.83;;;7.67;;
84084;SDS011;74175;41.730;44.734;2024-01-30T15:37:13;15.93;;;7.15;;
84084;SDS011;74175;41.730;44.734;2024-01-30T15:39:39;13.20;;;6.07;;
84084;SDS011;74175;41.730;44.734;2024-01-30T15:42:05;17.70;;;8.02;;
84084;SDS011;74175;41.730;44.734;2024-01-30T15:44:32;18.10;;;6.47;;
84084;SDS011;74175;41.730;44.734;2024-01-30T15:46:58;18.23;;;8.68;;
84084;SDS011;74175;41.730;44.734;2024-01-30T15:49:24;14.90;;;6.65;;
84084;SDS011;74175;41.730;44.734;2024-01-30T15:51:51;16.92;;;7.90;;
84084;SDS011;74175;41.730;44.734;2024-01-30T15:54:17;15.17;;;7.00;;
84084;SDS011;74175;41.730;44.734;2024-01-30T15:56:44;15.18;;;6.72;;
84084;SDS011;74175;41.730;44.734;2024-01-30T15:59:11;18.80;;;8.63;;
84084;SDS011;74175;41.730;44.734;2024-01-30T16:01:37;17.73;;;8.20;;
84084;SDS011;74175;41.730;44.734;2024-01-30T16:04:03;17.05;;;8.05;;
84084;SDS011;74175;41.730;44.734;2024-01-30T16:06:29;16.23;;;7.72;;
84084;SDS011;74175;41.730;44.734;2024-01-30T16:08:55;16.67;;;8.23;;
84084;SDS011;74175;41.730;44.734;2024-01-30T16:11:24;15.27;;;7.00;;
84084;SDS011;74175;41.730;44.734;2024-01-30T16:13:51;18.27;;;7.83;;